sensor_id;sensor_type;location;lat;lon;timestamp;pressure;altitude;pressure_sealevel;temperature;humidity
2036;BME280;23642;42.658;23.350;2023-04-28T00:02:00;56036.38;;;-146.31;53.62
2036;BME280;23642;42.658;23.350;2023-04-28T00:04:27;56026.06;;;-146.31;53.29
2036;BME280;23642;42.658;23.350;2023-04-28T00:06:57;56019.84;;;-146.31;53.80
2036;BME280;23642;42.658;23.350;2023-04-28T00:09:27;56038.44;;;-146.31;53.84
2036;BME280;23642;42.658;23.350;2023-04-28T00:11:57;56034.31;;;-146.31;53.71
2036;BME280;23642;42.658;23.350;2023-04-28T00:14:24;56034.31;;;-146.31;53.73
2036;BME280;23642;42.658;23.350;2023-04-28T00:17:17;56021.94;;;-146.31;54.35
2036;BME280;23642;42.658;23.350;2023-04-28T00:19:44;56034.31;;;-146.31;54.41
2036;BME280;23642;42.658;23.350;2023-04-28T00:22:12;56042.59;;;-146.31;54.28
2036;BME280;23642;42.658;23.350;2023-04-28T00:24:41;56030.19;;;-146.31;54.71
2036;BME280;23642;42.658;23.350;2023-04-28T00:27:10;56028.13;;;-146.31;54.67
2036;BME280;23642;42.658;23.350;2023-04-28T00:29:37;56034.31;;;-146.31;55.13
2036;BME280;23642;42.658;23.350;2023-04-28T00:32:05;56017.78;;;-146.31;55.30
2036;BME280;23642;42.658;23.350;2023-04-28T00:34:32;56024.00;;;-146.31;55.02
2036;BME280;23642;42.658;23.350;2023-04-28T00:39:30;56044.66;;;-146.31;55.41
2036;BME280;23642;42.658;23.350;2023-04-28T00:41:58;56013.66;;;-146.31;55.85
2036;BME280;23642;42.658;23.350;2023-04-28T00:44:26;56013.66;;;-146.31;55.74
2036;BME280;23642;42.658;23.350;2023-04-28T00:46:55;56011.59;;;-146.31;55.86
2036;BME280;23642;42.658;23.350;2023-04-28T00:49:43;56011.59;;;-146.31;55.61
2036;BME280;23642;42.658;23.350;2023-04-28T00:52:13;56017.78;;;-146.31;55.54
2036;BME280;23642;42.658;23.350;2023-04-28T00:54:42;56007.47;;;-146.31;55.89
2036;BME280;23642;42.658;23.350;2023-04-28T00:57:10;56009.53;;;-146.31;56.36
2036;BME280;23642;42.658;23.350;2023-04-28T00:59:37;55988.88;;;-146.31;55.76
2036;BME280;23642;42.658;23.350;2023-04-28T01:02:04;56026.06;;;-146.31;56.24
2036;BME280;23642;42.658;23.350;2023-04-28T01:04:36;55988.88;;;-146.31;56.27
2036;BME280;23642;42.658;23.350;2023-04-28T01:07:12;56001.28;;;-146.31;56.10
2036;BME280;23642;42.658;23.350;2023-04-28T01:09:40;56001.28;;;-146.31;56.34
2036;BME280;23642;42.658;23.350;2023-04-28T01:12:09;56003.34;;;-146.31;56.92
2036;BME280;23642;42.658;23.350;2023-04-28T01:14:38;55997.13;;;-146.31;56.07
2036;BME280;23642;42.658;23.350;2023-04-28T01:17:08;56007.47;;;-146.31;56.01
2036;BME280;23642;42.658;23.350;2023-04-28T01:19:41;56019.84;;;-146.31;56.13
2036;BME280;23642;42.658;23.350;2023-04-28T01:22:08;56001.28;;;-146.31;56.36
2036;BME280;23642;42.658;23.350;2023-04-28T01:24:50;56013.66;;;-146.31;55.81
2036;BME280;23642;42.658;23.350;2023-04-28T01:27:17;56019.84;;;-146.31;56.66
2036;BME280;23642;42.658;23.350;2023-04-28T01:29:45;56001.28;;;-146.31;56.02
2036;BME280;23642;42.658;23.350;2023-04-28T01:32:12;56021.94;;;-146.31;55.59
2036;BME280;23642;42.658;23.350;2023-04-28T01:34:43;55995.06;;;-146.31;55.83
2036;BME280;23642;42.658;23.350;2023-04-28T01:37:22;56017.78;;;-146.31;55.81
2036;BME280;23642;42.658;23.350;2023-04-28T01:40:00;55990.94;;;-146.31;56.31
2036;BME280;23642;42.658;23.350;2023-04-28T01:42:27;56024.00;;;-146.31;56.36
2036;BME280;23642;42.658;23.350;2023-04-28T01:45:05;55993.00;;;-146.31;56.29
2036;BME280;23642;42.658;23.350;2023-04-28T01:47:32;56030.19;;;-146.31;56.57
2036;BME280;23642;42.658;23.350;2023-04-28T01:49:59;55997.13;;;-146.31;55.90
2036;BME280;23642;42.658;23.350;2023-04-28T01:52:29;56005.41;;;-146.31;55.83
2036;BME280;23642;42.658;23.350;2023-04-28T01:54:57;56015.72;;;-146.31;56.01
2036;BME280;23642;42.658;23.350;2023-04-28T01:57:25;56005.41;;;-146.31;56.01
2036;BME280;23642;42.658;23.350;2023-04-28T01:59:53;56011.59;;;-146.31;55.81
2036;BME280;23642;42.658;23.350;2023-04-28T02:02:20;56021.94;;;-146.31;56.63
2036;BME280;23642;42.658;23.350;2023-04-28T02:04:58;56009.53;;;-146.31;56.32
2036;BME280;23642;42.658;23.350;2023-04-28T02:07:37;56017.78;;;-146.31;55.76
2036;BME280;23642;42.658;23.350;2023-04-28T02:10:09;56015.72;;;-146.31;56.45
2036;BME280;23642;42.658;23.350;2023-04-28T02:12:36;55978.53;;;-146.31;56.46
2036;BME280;23642;42.658;23.350;2023-04-28T02:15:06;56011.59;;;-146.31;56.67
2036;BME280;23642;42.658;23.350;2023-04-28T02:17:50;56007.47;;;-146.31;55.77
2036;BME280;23642;42.658;23.350;2023-04-28T02:20:17;56009.53;;;-146.31;56.20
2036;BME280;23642;42.658;23.350;2023-04-28T02:22:47;56015.72;;;-146.31;56.41
2036;BME280;23642;42.658;23.350;2023-04-28T02:25:32;56021.94;;;-146.31;56.06
2036;BME280;23642;42.658;23.350;2023-04-28T02:27:59;56001.28;;;-146.31;56.38
2036;BME280;23642;42.658;23.350;2023-04-28T02:30:33;56019.84;;;-146.31;56.47
2036;BME280;23642;42.658;23.350;2023-04-28T02:33:01;56009.53;;;-146.31;56.46
2036;BME280;23642;42.658;23.350;2023-04-28T02:35:31;56009.53;;;-146.31;57.23
2036;BME280;23642;42.658;23.350;2023-04-28T02:37:58;56005.41;;;-146.31;57.08
2036;BME280;23642;42.658;23.350;2023-04-28T02:40:46;55995.06;;;-146.31;57.56
2036;BME280;23642;42.658;23.350;2023-04-28T02:43:14;55999.19;;;-146.31;57.36
2036;BME280;23642;42.658;23.350;2023-04-28T02:45:44;55995.06;;;-146.31;57.51
2036;BME280;23642;42.658;23.350;2023-04-28T02:48:12;55978.53;;;-146.31;57.18
2036;BME280;23642;42.658;23.350;2023-04-28T02:50:39;55968.22;;;-146.31;57.08
2036;BME280;23642;42.658;23.350;2023-04-28T02:53:07;55978.53;;;-146.31;57.33
2036;BME280;23642;42.658;23.350;2023-04-28T02:55:34;55966.16;;;-146.31;57.10
2036;BME280;23642;42.658;23.350;2023-04-28T02:58:05;55951.69;;;-146.31;57.01
2036;BME280;23642;42.658;23.350;2023-04-28T03:00:32;55968.22;;;-146.31;57.44
2036;BME280;23642;42.658;23.350;2023-04-28T03:02:59;55943.44;;;-146.31;57.26
2036;BME280;23642;42.658;23.350;2023-04-28T03:05:27;55943.44;;;-146.31;56.71
2036;BME280;23642;42.658;23.350;2023-04-28T03:07:54;55949.63;;;-146.31;56.38
2036;BME280;23642;42.658;23.350;2023-04-28T03:10:21;55959.94;;;-146.31;56.46
2036;BME280;23642;42.658;23.350;2023-04-28T03:12:52;55955.81;;;-146.31;56.95
2036;BME280;23642;42.658;23.350;2023-04-28T03:15:20;55951.69;;;-146.31;56.58
2036;BME280;23642;42.658;23.350;2023-04-28T03:17:49;55951.69;;;-146.31;56.41
2036;BME280;23642;42.658;23.350;2023-04-28T03:20:16;55949.63;;;-146.31;56.03
2036;BME280;23642;42.658;23.350;2023-04-28T03:22:45;55993.00;;;-146.31;56.57
2036;BME280;23642;42.658;23.350;2023-04-28T03:25:17;55949.63;;;-146.31;56.42
2036;BME280;23642;42.658;23.350;2023-04-28T03:27:45;55976.47;;;-146.31;56.37
2036;BME280;23642;42.658;23.350;2023-04-28T03:30:16;55972.34;;;-146.31;55.68
2036;BME280;23642;42.658;23.350;2023-04-28T03:32:48;55953.75;;;-146.31;55.31
2036;BME280;23642;42.658;23.350;2023-04-28T03:35:15;55957.88;;;-146.31;55.74
2036;BME280;23642;42.658;23.350;2023-04-28T03:37:42;55947.56;;;-146.31;55.39
2036;BME280;23642;42.658;23.350;2023-04-28T03:40:12;55970.28;;;-146.31;55.68
2036;BME280;23642;42.658;23.350;2023-04-28T03:42:49;55988.88;;;-146.31;55.57
2036;BME280;23642;42.658;23.350;2023-04-28T03:45:16;55947.56;;;-146.31;55.39
2036;BME280;23642;42.658;23.350;2023-04-28T03:47:44;55976.47;;;-146.31;55.70
2036;BME280;23642;42.658;23.350;2023-04-28T03:50:14;55976.47;;;-146.31;55.19
2036;BME280;23642;42.658;23.350;2023-04-28T03:52:42;55964.09;;;-146.31;54.87
2036;BME280;23642;42.658;23.350;2023-04-28T03:55:10;55970.28;;;-146.31;54.43
2036;BME280;23642;42.658;23.350;2023-04-28T03:57:37;55972.34;;;-146.31;54.71
2036;BME280;23642;42.658;23.350;2023-04-28T04:00:05;55972.34;;;-146.31;54.73
2036;BME280;23642;42.658;23.350;2023-04-28T04:02:43;55976.47;;;-146.31;54.58
2036;BME280;23642;42.658;23.350;2023-04-28T04:05:12;55972.34;;;-146.31;54.73
2036;BME280;23642;42.658;23.350;2023-04-28T04:07:42;55966.16;;;-146.31;54.38
2036;BME280;23642;42.658;23.350;2023-04-28T04:10:17;55959.94;;;-146.31;54.18
2036;BME280;23642;42.658;23.350;2023-04-28T04:12:55;55997.13;;;-146.31;54.33
2036;BME280;23642;42.658;23.350;2023-04-28T04:15:47;55982.69;;;-146.31;53.93
2036;BME280;23642;42.658;23.350;2023-04-28T04:18:33;55986.81;;;-146.31;53.81
2036;BME280;23642;42.658;23.350;2023-04-28T04:21:03;55968.22;;;-146.31;54.06
2036;BME280;23642;42.658;23.350;2023-04-28T04:23:51;56003.34;;;-146.31;53.72
2036;BME280;23642;42.658;23.350;2023-04-28T04:26:18;55959.94;;;-146.31;53.92
2036;BME280;23642;42.658;23.350;2023-04-28T04:28:53;55986.81;;;-146.31;53.63
2036;BME280;23642;42.658;23.350;2023-04-28T04:31:44;55962.03;;;-146.31;53.63
2036;BME280;23642;42.658;23.350;2023-04-28T04:34:16;55997.13;;;-146.31;53.46
2036;BME280;23642;42.658;23.350;2023-04-28T04:37:02;55974.41;;;-146.31;53.59
2036;BME280;23642;42.658;23.350;2023-04-28T04:39:39;55990.94;;;-146.31;53.27
2036;BME280;23642;42.658;23.350;2023-04-28T04:42:08;55978.53;;;-146.31;53.27
2036;BME280;23642;42.658;23.350;2023-04-28T04:44:35;55959.94;;;-146.31;53.37
2036;BME280;23642;42.658;23.350;2023-04-28T04:47:07;55970.28;;;-146.31;53.16
2036;BME280;23642;42.658;23.350;2023-04-28T04:49:35;55990.94;;;-146.31;52.90
2036;BME280;23642;42.658;23.350;2023-04-28T04:52:04;55993.00;;;-146.31;53.04
2036;BME280;23642;42.658;23.350;2023-04-28T04:55:35;55995.06;;;-146.31;52.77
2036;BME280;23642;42.658;23.350;2023-04-28T04:57:25;55951.69;;;-146.31;52.67
2036;BME280;23642;42.658;23.350;2023-04-28T05:00:08;55980.63;;;-146.31;52.72
2036;BME280;23642;42.658;23.350;2023-04-28T05:02:45;55974.41;;;-146.31;51.89
2036;BME280;23642;42.658;23.350;2023-04-28T05:08:19;55984.75;;;-146.31;52.20
2036;BME280;23642;42.658;23.350;2023-04-28T05:10:46;55999.19;;;-146.31;51.74
2036;BME280;23642;42.658;23.350;2023-04-28T05:13:15;55959.94;;;-146.31;51.58
2036;BME280;23642;42.658;23.350;2023-04-28T05:15:46;55968.22;;;-146.31;51.22
2036;BME280;23642;42.658;23.350;2023-04-28T05:18:14;55993.00;;;-146.31;51.43
2036;BME280;23642;42.658;23.350;2023-04-28T05:20:43;55978.53;;;-146.31;51.70
2036;BME280;23642;42.658;23.350;2023-04-28T05:23:21;55943.44;;;-146.31;51.14
2036;BME280;23642;42.658;23.350;2023-04-28T05:25:53;55951.69;;;-146.31;50.97
2036;BME280;23642;42.658;23.350;2023-04-28T05:28:41;55959.94;;;-146.31;50.44
2036;BME280;23642;42.658;23.350;2023-04-28T05:31:11;55947.56;;;-146.31;50.74
2036;BME280;23642;42.658;23.350;2023-04-28T05:33:54;55953.75;;;-146.31;51.26
2036;BME280;23642;42.658;23.350;2023-04-28T05:36:29;55947.56;;;-146.31;50.86
2036;BME280;23642;42.658;23.350;2023-04-28T05:39:14;55933.09;;;-146.31;51.33
2036;BME280;23642;42.658;23.350;2023-04-28T05:41:41;55941.38;;;-146.31;50.89
2036;BME280;23642;42.658;23.350;2023-04-28T05:44:26;55933.09;;;-146.31;50.94
2036;BME280;23642;42.658;23.350;2023-04-28T05:46:59;55951.69;;;-146.31;51.08
2036;BME280;23642;42.658;23.350;2023-04-28T05:49:29;55990.94;;;-146.31;50.88
2036;BME280;23642;42.658;23.350;2023-04-28T05:51:57;55947.56;;;-146.31;51.31
2036;BME280;23642;42.658;23.350;2023-04-28T05:54:33;55918.63;;;-146.31;50.83
2036;BME280;23642;42.658;23.350;2023-04-28T05:57:11;55933.09;;;-146.31;50.39
2036;BME280;23642;42.658;23.350;2023-04-28T05:59:39;55895.91;;;-146.31;50.24
2036;BME280;23642;42.658;23.350;2023-04-28T06:02:11;55910.38;;;-146.31;50.22
2036;BME280;23642;42.658;23.350;2023-04-28T06:04:54;55904.19;;;-146.31;49.15
2036;BME280;23642;42.658;23.350;2023-04-28T06:07:28;55926.91;;;-146.31;49.13
2036;BME280;23642;42.658;23.350;2023-04-28T06:09:59;55947.56;;;-146.31;49.53
2036;BME280;23642;42.658;23.350;2023-04-28T06:12:58;55945.50;;;-146.31;49.11
2036;BME280;23642;42.658;23.350;2023-04-28T06:15:29;55947.56;;;-146.31;48.93
2036;BME280;23642;42.658;23.350;2023-04-28T06:18:08;55941.38;;;-146.31;48.42
2036;BME280;23642;42.658;23.350;2023-04-28T06:20:37;55959.94;;;-146.31;48.78
2036;BME280;23642;42.658;23.350;2023-04-28T06:23:07;55926.91;;;-146.31;47.62
2036;BME280;23642;42.658;23.350;2023-04-28T06:25:49;55893.84;;;-146.31;47.18
2036;BME280;23642;42.658;23.350;2023-04-28T06:29:24;55908.31;;;-146.31;47.74
2036;BME280;23642;42.658;23.350;2023-04-28T06:31:54;55910.38;;;-146.31;47.51
2036;BME280;23642;42.658;23.350;2023-04-28T06:34:33;55908.31;;;-146.31;46.91
2036;BME280;23642;42.658;23.350;2023-04-28T06:37:11;55922.78;;;-146.31;47.80
2036;BME280;23642;42.658;23.350;2023-04-28T06:39:42;55918.63;;;-146.31;46.68
2036;BME280;23642;42.658;23.350;2023-04-28T06:42:10;55922.78;;;-146.31;46.44
2036;BME280;23642;42.658;23.350;2023-04-28T06:44:38;55935.16;;;-146.31;46.33
2036;BME280;23642;42.658;23.350;2023-04-28T06:47:05;55959.94;;;-146.31;46.01
2036;BME280;23642;42.658;23.350;2023-04-28T06:49:52;55918.63;;;-146.31;46.64
2036;BME280;23642;42.658;23.350;2023-04-28T06:52:23;55935.16;;;-146.31;46.32
2036;BME280;23642;42.658;23.350;2023-04-28T06:55:05;55935.16;;;-146.31;46.42
2036;BME280;23642;42.658;23.350;2023-04-28T07:00:32;55908.31;;;-146.31;45.99
2036;BME280;23642;42.658;23.350;2023-04-28T07:03:21;55968.22;;;-146.31;45.89
2036;BME280;23642;42.658;23.350;2023-04-28T07:05:58;55951.69;;;-146.31;45.24
2036;BME280;23642;42.658;23.350;2023-04-28T07:09:00;55953.75;;;-146.31;44.76
2036;BME280;23642;42.658;23.350;2023-04-28T07:11:43;55935.16;;;-146.31;44.66
2036;BME280;23642;42.658;23.350;2023-04-28T07:14:38;55926.91;;;-146.31;44.28
2036;BME280;23642;42.658;23.350;2023-04-28T07:17:24;55931.03;;;-146.31;44.93
2036;BME280;23642;42.658;23.350;2023-04-28T07:20:27;55904.19;;;-146.31;44.64
2036;BME280;23642;42.658;23.350;2023-04-28T07:23:34;55900.03;;;-146.31;45.59
2036;BME280;23642;42.658;23.350;2023-04-28T07:26:22;55875.25;;;-146.31;44.81
2036;BME280;23642;42.658;23.350;2023-04-28T07:29:00;55881.44;;;-146.31;44.09
2036;BME280;23642;42.658;23.350;2023-04-28T07:42:33;55904.19;;;-146.31;43.49
2036;BME280;23642;42.658;23.350;2023-04-28T07:45:30;55933.09;;;-146.31;43.64
2036;BME280;23642;42.658;23.350;2023-04-28T07:48:02;55900.03;;;-146.31;43.74
2036;BME280;23642;42.658;23.350;2023-04-28T07:50:35;55920.69;;;-146.31;43.89
2036;BME280;23642;42.658;23.350;2023-04-28T07:53:17;55914.50;;;-146.31;43.69
2036;BME280;23642;42.658;23.350;2023-04-28T07:55:47;55906.25;;;-146.31;43.47
2036;BME280;23642;42.658;23.350;2023-04-28T07:58:18;55918.63;;;-146.31;43.59
2036;BME280;23642;42.658;23.350;2023-04-28T08:01:06;55875.25;;;-146.31;43.17
2036;BME280;23642;42.658;23.350;2023-04-28T08:04:02;55906.25;;;-146.31;43.07
2036;BME280;23642;42.658;23.350;2023-04-28T08:06:33;55918.63;;;-146.31;42.41
2036;BME280;23642;42.658;23.350;2023-04-28T08:09:32;55914.50;;;-146.31;41.93
2036;BME280;23642;42.658;23.350;2023-04-28T08:12:18;55906.25;;;-146.31;41.49
2036;BME280;23642;42.658;23.350;2023-04-28T08:14:49;55955.81;;;-146.31;41.07
2036;BME280;23642;42.658;23.350;2023-04-28T08:17:23;55924.84;;;-146.31;41.44
2036;BME280;23642;42.658;23.350;2023-04-28T08:19:53;55887.66;;;-146.31;41.11
2036;BME280;23642;42.658;23.350;2023-04-28T08:22:21;55900.03;;;-146.31;41.49
2036;BME280;23642;42.658;23.350;2023-04-28T08:24:50;55933.09;;;-146.31;40.44
2036;BME280;23642;42.658;23.350;2023-04-28T08:27:32;55941.38;;;-146.31;40.52
2036;BME280;23642;42.658;23.350;2023-04-28T08:30:18;55947.56;;;-146.31;41.29
2036;BME280;23642;42.658;23.350;2023-04-28T08:32:48;55933.09;;;-146.31;39.54
2036;BME280;23642;42.658;23.350;2023-04-28T08:35:15;55947.56;;;-146.31;40.07
2036;BME280;23642;42.658;23.350;2023-04-28T08:37:43;55949.63;;;-146.31;40.24
2036;BME280;23642;42.658;23.350;2023-04-28T08:40:11;55937.22;;;-146.31;40.45
2036;BME280;23642;42.658;23.350;2023-04-28T08:42:43;55951.69;;;-146.31;39.27
2036;BME280;23642;42.658;23.350;2023-04-28T08:45:39;55941.38;;;-146.31;39.70
2036;BME280;23642;42.658;23.350;2023-04-28T08:48:17;55926.91;;;-146.31;39.54
2036;BME280;23642;42.658;23.350;2023-04-28T08:50:49;55918.63;;;-146.31;40.27
2036;BME280;23642;42.658;23.350;2023-04-28T08:53:38;55939.28;;;-146.31;39.66
2036;BME280;23642;42.658;23.350;2023-04-28T08:56:11;55941.38;;;-146.31;39.96
2036;BME280;23642;42.658;23.350;2023-04-28T08:58:55;55914.50;;;-146.31;39.21
2036;BME280;23642;42.658;23.350;2023-04-28T09:01:27;55918.63;;;-146.31;39.36
2036;BME280;23642;42.658;23.350;2023-04-28T09:04:15;55887.66;;;-146.31;39.04
2036;BME280;23642;42.658;23.350;2023-04-28T09:06:43;55922.78;;;-146.31;39.63
2036;BME280;23642;42.658;23.350;2023-04-28T09:09:22;55860.78;;;-146.31;39.26
2036;BME280;23642;42.658;23.350;2023-04-28T09:12:02;55885.59;;;-146.31;39.65
2036;BME280;23642;42.658;23.350;2023-04-28T09:14:40;55906.25;;;-146.31;39.29
2036;BME280;23642;42.658;23.350;2023-04-28T09:17:27;55902.09;;;-146.31;38.52
2036;BME280;23642;42.658;23.350;2023-04-28T09:19:56;55897.97;;;-146.31;38.73
2036;BME280;23642;42.658;23.350;2023-04-28T09:22:35;55893.84;;;-146.31;39.29
2036;BME280;23642;42.658;23.350;2023-04-28T09:25:15;55922.78;;;-146.31;39.70
2036;BME280;23642;42.658;23.350;2023-04-28T09:28:00;55926.91;;;-146.31;38.93
2036;BME280;23642;42.658;23.350;2023-04-28T09:30:50;55904.19;;;-146.31;38.82
2036;BME280;23642;42.658;23.350;2023-04-28T09:33:32;55902.09;;;-146.31;38.59
2036;BME280;23642;42.658;23.350;2023-04-28T09:36:26;55931.03;;;-146.31;38.99
2036;BME280;23642;42.658;23.350;2023-04-28T09:38:56;55926.91;;;-146.31;37.77
2036;BME280;23642;42.658;23.350;2023-04-28T09:41:38;55922.78;;;-146.31;37.45
2036;BME280;23642;42.658;23.350;2023-04-28T09:44:13;55864.94;;;-146.31;38.22
2036;BME280;23642;42.658;23.350;2023-04-28T09:46:55;55883.53;;;-146.31;37.73
2036;BME280;23642;42.658;23.350;2023-04-28T09:49:30;55885.59;;;-146.31;37.59
2036;BME280;23642;42.658;23.350;2023-04-28T09:52:11;55881.44;;;-146.31;38.29
2036;BME280;23642;42.658;23.350;2023-04-28T09:54:39;55914.50;;;-146.31;37.42
2036;BME280;23642;42.658;23.350;2023-04-28T09:59:54;55881.44;;;-146.31;37.96
2036;BME280;23642;42.658;23.350;2023-04-28T10:02:28;55953.75;;;-146.31;37.01
2036;BME280;23642;42.658;23.350;2023-04-28T10:05:09;55897.97;;;-146.31;37.27
2036;BME280;23642;42.658;23.350;2023-04-28T10:07:40;55883.53;;;-146.31;37.23
2036;BME280;23642;42.658;23.350;2023-04-28T10:10:27;55922.78;;;-146.31;37.12
2036;BME280;23642;42.658;23.350;2023-04-28T10:12:55;55873.19;;;-146.31;36.84
2036;BME280;23642;42.658;23.350;2023-04-28T10:15:24;55906.25;;;-146.31;36.42
2036;BME280;23642;42.658;23.350;2023-04-28T10:17:54;55893.84;;;-146.31;36.17
2036;BME280;23642;42.658;23.350;2023-04-28T10:23:55;55910.38;;;-146.31;37.07
2036;BME280;23642;42.658;23.350;2023-04-28T10:27:02;55897.97;;;-146.31;36.35
2036;BME280;23642;42.658;23.350;2023-04-28T10:29:34;55881.44;;;-146.31;36.20
2036;BME280;23642;42.658;23.350;2023-04-28T10:32:25;55873.19;;;-146.31;36.95
2036;BME280;23642;42.658;23.350;2023-04-28T10:38:28;55873.19;;;-146.31;35.02
2036;BME280;23642;42.658;23.350;2023-04-28T10:41:35;55867.00;;;-146.31;34.78
2036;BME280;23642;42.658;23.350;2023-04-28T10:45:18;55906.25;;;-146.31;34.92
2036;BME280;23642;42.658;23.350;2023-04-28T10:48:03;55885.59;;;-146.31;35.27
2036;BME280;23642;42.658;23.350;2023-04-28T10:50:33;55922.78;;;-146.31;35.43
2036;BME280;23642;42.658;23.350;2023-04-28T10:53:02;55885.59;;;-146.31;34.80
2036;BME280;23642;42.658;23.350;2023-04-28T10:55:31;55891.78;;;-146.31;34.72
2036;BME280;23642;42.658;23.350;2023-04-28T10:58:43;55883.53;;;-146.31;34.39
2036;BME280;23642;42.658;23.350;2023-04-28T11:01:28;55910.38;;;-146.31;34.83
2036;BME280;23642;42.658;23.350;2023-04-28T11:04:11;55902.09;;;-146.31;34.42
2036;BME280;23642;42.658;23.350;2023-04-28T11:10:06;55881.44;;;-146.31;34.99
2036;BME280;23642;42.658;23.350;2023-04-28T11:16:04;55924.84;;;-146.31;33.48
2036;BME280;23642;42.658;23.350;2023-04-28T11:22:17;55873.19;;;-146.31;33.59
2036;BME280;23642;42.658;23.350;2023-04-28T11:25:04;55881.44;;;-146.31;33.62
2036;BME280;23642;42.658;23.350;2023-04-28T11:27:48;55871.13;;;-146.31;33.97
2036;BME280;23642;42.658;23.350;2023-04-28T11:44:05;55895.91;;;-146.31;32.02
2036;BME280;23642;42.658;23.350;2023-04-28T11:46:48;55926.91;;;-146.31;32.12
2036;BME280;23642;42.658;23.350;2023-04-28T11:49:53;55922.78;;;-146.31;30.77
2036;BME280;23642;42.658;23.350;2023-04-28T11:56:38;55846.34;;;-146.31;30.98
2036;BME280;23642;42.658;23.350;2023-04-28T12:05:28;55900.03;;;-146.31;31.68
2036;BME280;23642;42.658;23.350;2023-04-28T12:08:42;55897.97;;;-146.31;31.58
2036;BME280;23642;42.658;23.350;2023-04-28T12:14:57;55902.09;;;-146.31;31.92
2036;BME280;23642;42.658;23.350;2023-04-28T12:17:37;55887.66;;;-146.31;31.11
2036;BME280;23642;42.658;23.350;2023-04-28T12:20:12;55941.38;;;-146.31;30.91
2036;BME280;23642;42.658;23.350;2023-04-28T12:23:09;55935.16;;;-146.31;30.44
2036;BME280;23642;42.658;23.350;2023-04-28T12:26:06;55916.56;;;-146.31;30.83
2036;BME280;23642;42.658;23.350;2023-04-28T12:28:39;55891.78;;;-146.31;30.82
2036;BME280;23642;42.658;23.350;2023-04-28T12:31:17;55935.16;;;-146.31;30.35
2036;BME280;23642;42.658;23.350;2023-04-28T12:33:47;55873.19;;;-146.31;32.52
2036;BME280;23642;42.658;23.350;2023-04-28T12:36:35;55829.81;;;-146.31;32.22
2036;BME280;23642;42.658;23.350;2023-04-28T12:39:33;55805.03;;;-146.31;32.64
2036;BME280;23642;42.658;23.350;2023-04-28T12:42:24;55823.63;;;-146.31;32.03
2036;BME280;23642;42.658;23.350;2023-04-28T12:45:10;55827.75;;;-146.31;31.75
2036;BME280;23642;42.658;23.350;2023-04-28T12:47:54;55796.75;;;-146.31;31.79
2036;BME280;23642;42.658;23.350;2023-04-28T12:50:49;55788.50;;;-146.31;31.27
2036;BME280;23642;42.658;23.350;2023-04-28T12:57:09;55802.97;;;-146.31;30.22
2036;BME280;23642;42.658;23.350;2023-04-28T13:00:00;55823.63;;;-146.31;30.25
2036;BME280;23642;42.658;23.350;2023-04-28T13:02:39;55842.22;;;-146.31;30.42
2036;BME280;23642;42.658;23.350;2023-04-28T13:05:09;55802.97;;;-146.31;31.11
2036;BME280;23642;42.658;23.350;2023-04-28T13:07:44;55809.16;;;-146.31;31.33
2036;BME280;23642;42.658;23.350;2023-04-28T13:10:23;55784.38;;;-146.31;30.67
2036;BME280;23642;42.658;23.350;2023-04-28T13:13:12;55817.41;;;-146.31;30.09
2036;BME280;23642;42.658;23.350;2023-04-28T13:16:19;55790.56;;;-146.31;30.22
2036;BME280;23642;42.658;23.350;2023-04-28T13:18:49;55809.16;;;-146.31;30.75
2036;BME280;23642;42.658;23.350;2023-04-28T13:21:39;55800.91;;;-146.31;30.77
2036;BME280;23642;42.658;23.350;2023-04-28T13:24:12;55807.09;;;-146.31;31.07
2036;BME280;23642;42.658;23.350;2023-04-28T13:26:45;55827.75;;;-146.31;30.80
2036;BME280;23642;42.658;23.350;2023-04-28T13:29:43;55823.63;;;-146.31;30.48
2036;BME280;23642;42.658;23.350;2023-04-28T13:32:24;55798.81;;;-146.31;30.64
2036;BME280;23642;42.658;23.350;2023-04-28T13:35:03;55798.81;;;-146.31;30.49
2036;BME280;23642;42.658;23.350;2023-04-28T13:41:13;55811.22;;;-146.31;30.24
2036;BME280;23642;42.658;23.350;2023-04-28T13:44:17;55774.03;;;-146.31;30.72
2036;BME280;23642;42.658;23.350;2023-04-28T13:53:55;55836.00;;;-146.31;31.32
2036;BME280;23642;42.658;23.350;2023-04-28T13:56:37;55786.44;;;-146.31;30.82
2036;BME280;23642;42.658;23.350;2023-04-28T13:59:13;55774.03;;;-146.31;30.37
2036;BME280;23642;42.658;23.350;2023-04-28T14:01:54;55788.50;;;-146.31;30.17
2036;BME280;23642;42.658;23.350;2023-04-28T14:04:45;55798.81;;;-146.31;30.27
2036;BME280;23642;42.658;23.350;2023-04-28T14:07:35;55825.69;;;-146.31;30.46
2036;BME280;23642;42.658;23.350;2023-04-28T14:10:24;55788.50;;;-146.31;30.05
2036;BME280;23642;42.658;23.350;2023-04-28T14:12:54;55807.09;;;-146.31;30.22
2036;BME280;23642;42.658;23.350;2023-04-28T14:15:29;55788.50;;;-146.31;30.03
2036;BME280;23642;42.658;23.350;2023-04-28T14:18:08;55755.44;;;-146.31;29.53
2036;BME280;23642;42.658;23.350;2023-04-28T14:20:48;55790.56;;;-146.31;29.62
2036;BME280;23642;42.658;23.350;2023-04-28T14:30:13;55741.00;;;-146.31;29.70
2036;BME280;23642;42.658;23.350;2023-04-28T14:33:40;55755.44;;;-146.31;29.24
2036;BME280;23642;42.658;23.350;2023-04-28T14:36:32;55745.13;;;-146.31;29.61
2036;BME280;23642;42.658;23.350;2023-04-28T14:39:13;55784.38;;;-146.31;29.25
2036;BME280;23642;42.658;23.350;2023-04-28T14:41:45;55769.91;;;-146.31;29.27
2036;BME280;23642;42.658;23.350;2023-04-28T14:47:24;55790.56;;;-146.31;29.67
2036;BME280;23642;42.658;23.350;2023-04-28T14:50:15;55786.44;;;-146.31;29.30
2036;BME280;23642;42.658;23.350;2023-04-28T14:53:09;55802.97;;;-146.31;28.99
2036;BME280;23642;42.658;23.350;2023-04-28T14:55:48;55782.31;;;-146.31;29.20
2036;BME280;23642;42.658;23.350;2023-04-28T14:58:22;55765.78;;;-146.31;28.56
2036;BME280;23642;42.658;23.350;2023-04-28T15:01:12;55774.03;;;-146.31;28.84
2036;BME280;23642;42.658;23.350;2023-04-28T15:04:13;55765.78;;;-146.31;28.59